sensor_id;sensor_type;location;lat;lon;timestamp;temperature;humidity
23156;DHT22;11746;50.876;4.246;2023-07-08T00:00:15;23.00;93.30
23156;DHT22;11746;50.876;4.246;2023-07-08T00:02:41;23.00;93.40
23156;DHT22;11746;50.876;4.246;2023-07-08T00:05:10;23.10;93.20
23156;DHT22;11746;50.876;4.246;2023-07-08T00:07:37;23.00;93.60
23156;DHT22;11746;50.876;4.246;2023-07-08T00:10:15;23.00;93.70
23156;DHT22;11746;50.876;4.246;2023-07-08T00:12:42;22.90;94.00
23156;DHT22;11746;50.876;4.246;2023-07-08T00:15:09;22.70;94.80
23156;DHT22;11746;50.876;4.246;2023-07-08T00:17:36;22.70;95.00
23156;DHT22;11746;50.876;4.246;2023-07-08T00:20:08;22.60;95.30
23156;DHT22;11746;50.876;4.246;2023-07-08T00:22:34;22.60;95.20
23156;DHT22;11746;50.876;4.246;2023-07-08T00:25:01;22.60;95.70
23156;DHT22;11746;50.876;4.246;2023-07-08T00:27:27;22.60;95.90
23156;DHT22;11746;50.876;4.246;2023-07-08T00:29:53;22.50;96.30
23156;DHT22;11746;50.876;4.246;2023-07-08T00:32:19;22.50;96.70
23156;DHT22;11746;50.876;4.246;2023-07-08T00:34:45;22.40;97.20
23156;DHT22;11746;50.876;4.246;2023-07-08T00:37:12;22.40;97.70
23156;DHT22;11746;50.876;4.246;2023-07-08T00:39:39;22.40;98.40
23156;DHT22;11746;50.876;4.246;2023-07-08T00:42:18;22.40;99.10
23156;DHT22;11746;50.876;4.246;2023-07-08T00:44:45;22.30;99.00
23156;DHT22;11746;50.876;4.246;2023-07-08T00:47:12;22.20;99.50
23156;DHT22;11746;50.876;4.246;2023-07-08T00:49:56;22.20;99.70
23156;DHT22;11746;50.876;4.246;2023-07-08T00:52:25;22.00;99.90
23156;DHT22;11746;50.876;4.246;2023-07-08T00:54:54;22.10;99.90
23156;DHT22;11746;50.876;4.246;2023-07-08T00:57:21;22.00;99.90
23156;DHT22;11746;50.876;4.246;2023-07-08T01:00:07;22.00;99.90
23156;DHT22;11746;50.876;4.246;2023-07-08T01:02:38;22.00;99.90
23156;DHT22;11746;50.876;4.246;2023-07-08T01:05:12;22.00;99.90
23156;DHT22;11746;50.876;4.246;2023-07-08T01:07:41;21.90;99.90
23156;DHT22;11746;50.876;4.246;2023-07-08T01:10:14;21.80;99.90
23156;DHT22;11746;50.876;4.246;2023-07-08T01:12:48;21.90;99.90
23156;DHT22;11746;50.876;4.246;2023-07-08T01:15:15;21.80;99.90
23156;DHT22;11746;50.876;4.246;2023-07-08T01:17:43;21.90;99.90
23156;DHT22;11746;50.876;4.246;2023-07-08T01:20:10;21.80;99.90
23156;DHT22;11746;50.876;4.246;2023-07-08T01:22:41;21.80;99.90
23156;DHT22;11746;50.876;4.246;2023-07-08T01:25:09;21.80;99.90
23156;DHT22;11746;50.876;4.246;2023-07-08T01:27:38;21.70;99.90
23156;DHT22;11746;50.876;4.246;2023-07-08T01:30:06;21.80;99.90
23156;DHT22;11746;50.876;4.246;2023-07-08T01:32:39;21.80;99.90
23156;DHT22;11746;50.876;4.246;2023-07-08T01:35:06;21.80;99.90
23156;DHT22;11746;50.876;4.246;2023-07-08T01:37:38;21.80;99.90
23156;DHT22;11746;50.876;4.246;2023-07-08T01:42:50;21.80;99.90
23156;DHT22;11746;50.876;4.246;2023-07-08T01:45:23;21.70;99.90
23156;DHT22;11746;50.876;4.246;2023-07-08T01:48:15;21.60;99.90
23156;DHT22;11746;50.876;4.246;2023-07-08T01:51:05;21.60;99.90
23156;DHT22;11746;50.876;4.246;2023-07-08T01:53:37;21.60;99.90
23156;DHT22;11746;50.876;4.246;2023-07-08T01:56:04;21.50;99.90
23156;DHT22;11746;50.876;4.246;2023-07-08T01:58:30;21.50;99.90
23156;DHT22;11746;50.876;4.246;2023-07-08T02:00:56;21.60;99.90
23156;DHT22;11746;50.876;4.246;2023-07-08T02:03:25;21.50;99.90
23156;DHT22;11746;50.876;4.246;2023-07-08T02:05:52;21.50;99.90
23156;DHT22;11746;50.876;4.246;2023-07-08T02:08:18;21.50;99.90
23156;DHT22;11746;50.876;4.246;2023-07-08T02:10:48;21.50;99.90
23156;DHT22;11746;50.876;4.246;2023-07-08T02:13:14;21.50;99.90
23156;DHT22;11746;50.876;4.246;2023-07-08T02:15:40;21.50;99.90
23156;DHT22;11746;50.876;4.246;2023-07-08T02:18:06;21.50;99.90
23156;DHT22;11746;50.876;4.246;2023-07-08T02:20:32;21.40;99.90
23156;DHT22;11746;50.876;4.246;2023-07-08T02:22:58;21.40;99.90
23156;DHT22;11746;50.876;4.246;2023-07-08T02:25:24;21.40;99.90
23156;DHT22;11746;50.876;4.246;2023-07-08T02:27:51;21.40;99.90
23156;DHT22;11746;50.876;4.246;2023-07-08T02:30:17;21.40;99.90
23156;DHT22;11746;50.876;4.246;2023-07-08T02:32:43;21.40;99.90
23156;DHT22;11746;50.876;4.246;2023-07-08T02:35:14;21.40;99.90
23156;DHT22;11746;50.876;4.246;2023-07-08T02:37:40;21.40;99.90
23156;DHT22;11746;50.876;4.246;2023-07-08T02:40:06;21.30;99.90
23156;DHT22;11746;50.876;4.246;2023-07-08T02:42:32;21.40;99.90
23156;DHT22;11746;50.876;4.246;2023-07-08T02:44:58;21.40;99.90
23156;DHT22;11746;50.876;4.246;2023-07-08T02:47:24;21.40;99.90
23156;DHT22;11746;50.876;4.246;2023-07-08T02:49:50;21.40;99.90
23156;DHT22;11746;50.876;4.246;2023-07-08T02:52:16;21.20;99.90
23156;DHT22;11746;50.876;4.246;2023-07-08T02:54:44;21.30;99.90
23156;DHT22;11746;50.876;4.246;2023-07-08T02:57:12;21.30;99.90
23156;DHT22;11746;50.876;4.246;2023-07-08T02:59:38;21.20;99.90
23156;DHT22;11746;50.876;4.246;2023-07-08T03:02:04;21.20;99.90
23156;DHT22;11746;50.876;4.246;2023-07-08T03:04:30;21.10;99.90
23156;DHT22;11746;50.876;4.246;2023-07-08T03:06:56;21.00;99.90
23156;DHT22;11746;50.876;4.246;2023-07-08T03:09:22;21.00;99.90
23156;DHT22;11746;50.876;4.246;2023-07-08T03:11:48;20.90;99.90
23156;DHT22;11746;50.876;4.246;2023-07-08T03:14:14;20.80;99.90
23156;DHT22;11746;50.876;4.246;2023-07-08T03:16:40;20.80;99.90
23156;DHT22;11746;50.876;4.246;2023-07-08T03:19:12;20.80;99.90
23156;DHT22;11746;50.876;4.246;2023-07-08T03:21:40;20.80;99.90
23156;DHT22;11746;50.876;4.246;2023-07-08T03:24:10;20.80;99.90
23156;DHT22;11746;50.876;4.246;2023-07-08T03:26:36;20.80;99.90
23156;DHT22;11746;50.876;4.246;2023-07-08T03:29:02;21.00;99.90
23156;DHT22;11746;50.876;4.246;2023-07-08T03:31:28;21.00;99.90
23156;DHT22;11746;50.876;4.246;2023-07-08T03:33:54;21.00;99.90
23156;DHT22;11746;50.876;4.246;2023-07-08T03:36:20;21.00;99.90
23156;DHT22;11746;50.876;4.246;2023-07-08T03:38:50;21.00;99.90
23156;DHT22;11746;50.876;4.246;2023-07-08T03:41:17;20.80;99.90
23156;DHT22;11746;50.876;4.246;2023-07-08T03:43:43;20.90;99.90
23156;DHT22;11746;50.876;4.246;2023-07-08T03:46:13;20.90;99.90
23156;DHT22;11746;50.876;4.246;2023-07-08T03:48:39;20.80;99.90
23156;DHT22;11746;50.876;4.246;2023-07-08T03:51:20;20.80;99.90
23156;DHT22;11746;50.876;4.246;2023-07-08T03:53:47;20.70;99.90
23156;DHT22;11746;50.876;4.246;2023-07-08T03:56:13;20.70;99.90
23156;DHT22;11746;50.876;4.246;2023-07-08T03:58:39;20.80;99.90
23156;DHT22;11746;50.876;4.246;2023-07-08T04:01:13;20.80;99.90
23156;DHT22;11746;50.876;4.246;2023-07-08T04:03:40;20.70;99.90
23156;DHT22;11746;50.876;4.246;2023-07-08T04:06:05;20.80;99.90
23156;DHT22;11746;50.876;4.246;2023-07-08T04:08:31;20.80;99.90
23156;DHT22;11746;50.876;4.246;2023-07-08T04:11:00;20.90;99.90
23156;DHT22;11746;50.876;4.246;2023-07-08T04:13:26;20.90;99.90
23156;DHT22;11746;50.876;4.246;2023-07-08T04:15:55;20.90;99.90
23156;DHT22;11746;50.876;4.246;2023-07-08T04:18:21;21.00;99.90
23156;DHT22;11746;50.876;4.246;2023-07-08T04:20:47;20.90;99.90
23156;DHT22;11746;50.876;4.246;2023-07-08T04:23:23;20.90;99.90
23156;DHT22;11746;50.876;4.246;2023-07-08T04:25:52;20.90;99.90
23156;DHT22;11746;50.876;4.246;2023-07-08T04:28:18;21.00;99.90
23156;DHT22;11746;50.876;4.246;2023-07-08T04:30:44;21.00;99.90
23156;DHT22;11746;50.876;4.246;2023-07-08T04:33:12;21.00;99.90
23156;DHT22;11746;50.876;4.246;2023-07-08T04:35:40;21.10;99.90
23156;DHT22;11746;50.876;4.246;2023-07-08T04:38:09;21.10;99.90
23156;DHT22;11746;50.876;4.246;2023-07-08T04:40:39;21.10;99.90
23156;DHT22;11746;50.876;4.246;2023-07-08T04:43:09;21.20;99.90
23156;DHT22;11746;50.876;4.246;2023-07-08T04:45:42;21.30;99.90
23156;DHT22;11746;50.876;4.246;2023-07-08T04:48:13;21.20;99.90
23156;DHT22;11746;50.876;4.246;2023-07-08T04:50:44;21.20;99.90
23156;DHT22;11746;50.876;4.246;2023-07-08T04:53:11;21.10;99.90
23156;DHT22;11746;50.876;4.246;2023-07-08T04:55:48;21.30;99.90
23156;DHT22;11746;50.876;4.246;2023-07-08T04:58:15;21.40;99.90
23156;DHT22;11746;50.876;4.246;2023-07-08T05:00:41;21.40;99.90
23156;DHT22;11746;50.876;4.246;2023-07-08T05:03:07;21.50;99.90
23156;DHT22;11746;50.876;4.246;2023-07-08T05:05:33;21.60;99.90
23156;DHT22;11746;50.876;4.246;2023-07-08T05:07:59;21.60;99.90
23156;DHT22;11746;50.876;4.246;2023-07-08T05:10:27;21.70;99.90
23156;DHT22;11746;50.876;4.246;2023-07-08T05:12:53;21.70;99.90
23156;DHT22;11746;50.876;4.246;2023-07-08T05:15:19;21.70;99.90
23156;DHT22;11746;50.876;4.246;2023-07-08T05:17:45;21.70;99.90
23156;DHT22;11746;50.876;4.246;2023-07-08T05:20:13;21.70;99.90
23156;DHT22;11746;50.876;4.246;2023-07-08T05:22:40;21.70;99.90
23156;DHT22;11746;50.876;4.246;2023-07-08T05:25:07;21.70;99.90
23156;DHT22;11746;50.876;4.246;2023-07-08T05:27:33;21.90;99.90
23156;DHT22;11746;50.876;4.246;2023-07-08T05:30:01;22.00;99.90
23156;DHT22;11746;50.876;4.246;2023-07-08T05:32:27;22.00;99.90
23156;DHT22;11746;50.876;4.246;2023-07-08T05:34:53;21.90;99.90
23156;DHT22;11746;50.876;4.246;2023-07-08T05:37:20;22.00;99.90
23156;DHT22;11746;50.876;4.246;2023-07-08T05:39:51;22.10;99.90
23156;DHT22;11746;50.876;4.246;2023-07-08T05:42:18;22.10;99.90
23156;DHT22;11746;50.876;4.246;2023-07-08T05:44:44;22.20;99.90
23156;DHT22;11746;50.876;4.246;2023-07-08T05:47:10;22.20;99.90
23156;DHT22;11746;50.876;4.246;2023-07-08T05:49:35;22.30;99.90
23156;DHT22;11746;50.876;4.246;2023-07-08T05:52:02;22.50;99.90
23156;DHT22;11746;50.876;4.246;2023-07-08T05:54:34;22.60;99.90
23156;DHT22;11746;50.876;4.246;2023-07-08T05:56:59;22.60;99.90
23156;DHT22;11746;50.876;4.246;2023-07-08T05:59:25;22.60;99.90
23156;DHT22;11746;50.876;4.246;2023-07-08T06:01:55;22.60;99.90
23156;DHT22;11746;50.876;4.246;2023-07-08T06:04:20;22.70;99.90
23156;DHT22;11746;50.876;4.246;2023-07-08T06:06:48;22.90;99.90
23156;DHT22;11746;50.876;4.246;2023-07-08T06:09:13;22.90;99.90
23156;DHT22;11746;50.876;4.246;2023-07-08T06:11:39;23.10;99.90
23156;DHT22;11746;50.876;4.246;2023-07-08T06:14:05;23.30;99.90
23156;DHT22;11746;50.876;4.246;2023-07-08T06:16:31;23.40;99.90
23156;DHT22;11746;50.876;4.246;2023-07-08T06:19:00;23.40;99.90
23156;DHT22;11746;50.876;4.246;2023-07-08T06:21:26;23.50;99.90
23156;DHT22;11746;50.876;4.246;2023-07-08T06:23:52;23.50;99.90
23156;DHT22;11746;50.876;4.246;2023-07-08T06:26:17;23.60;99.90
23156;DHT22;11746;50.876;4.246;2023-07-08T06:28:44;23.70;99.90
23156;DHT22;11746;50.876;4.246;2023-07-08T06:31:10;23.80;99.90
23156;DHT22;11746;50.876;4.246;2023-07-08T06:33:36;23.90;99.90
23156;DHT22;11746;50.876;4.246;2023-07-08T06:36:02;23.90;99.90
23156;DHT22;11746;50.876;4.246;2023-07-08T06:38:28;24.10;99.90
23156;DHT22;11746;50.876;4.246;2023-07-08T06:40:54;24.10;99.90
23156;DHT22;11746;50.876;4.246;2023-07-08T06:43:20;24.10;99.90
23156;DHT22;11746;50.876;4.246;2023-07-08T06:45:46;24.20;99.90
23156;DHT22;11746;50.876;4.246;2023-07-08T06:48:14;24.40;99.90
23156;DHT22;11746;50.876;4.246;2023-07-08T06:50:42;24.40;99.90
23156;DHT22;11746;50.876;4.246;2023-07-08T06:53:09;24.60;99.90
23156;DHT22;11746;50.876;4.246;2023-07-08T06:55:35;24.60;99.90
23156;DHT22;11746;50.876;4.246;2023-07-08T06:58:00;24.60;99.90
23156;DHT22;11746;50.876;4.246;2023-07-08T07:00:26;24.60;99.90
23156;DHT22;11746;50.876;4.246;2023-07-08T07:02:52;24.50;99.90
23156;DHT22;11746;50.876;4.246;2023-07-08T07:05:18;24.60;99.90
23156;DHT22;11746;50.876;4.246;2023-07-08T07:07:44;24.70;99.90
23156;DHT22;11746;50.876;4.246;2023-07-08T07:10:10;24.80;99.90
23156;DHT22;11746;50.876;4.246;2023-07-08T07:12:36;25.00;99.90
23156;DHT22;11746;50.876;4.246;2023-07-08T07:15:02;25.30;99.90
23156;DHT22;11746;50.876;4.246;2023-07-08T07:17:29;25.50;99.90
23156;DHT22;11746;50.876;4.246;2023-07-08T07:19:55;25.60;99.90
23156;DHT22;11746;50.876;4.246;2023-07-08T07:22:21;25.80;99.90
23156;DHT22;11746;50.876;4.246;2023-07-08T07:24:47;25.90;99.90
23156;DHT22;11746;50.876;4.246;2023-07-08T07:27:13;26.00;99.90
23156;DHT22;11746;50.876;4.246;2023-07-08T07:29:45;26.00;99.90
23156;DHT22;11746;50.876;4.246;2023-07-08T07:32:12;26.20;99.90
23156;DHT22;11746;50.876;4.246;2023-07-08T07:34:39;26.30;99.90
23156;DHT22;11746;50.876;4.246;2023-07-08T07:37:06;26.30;99.90
23156;DHT22;11746;50.876;4.246;2023-07-08T07:39:32;26.30;99.90
23156;DHT22;11746;50.876;4.246;2023-07-08T07:41:58;26.40;99.90
23156;DHT22;11746;50.876;4.246;2023-07-08T07:44:24;26.40;99.90
23156;DHT22;11746;50.876;4.246;2023-07-08T07:46:52;26.50;99.90
23156;DHT22;11746;50.876;4.246;2023-07-08T07:49:19;26.60;99.70
23156;DHT22;11746;50.876;4.246;2023-07-08T07:51:45;26.50;98.20
23156;DHT22;11746;50.876;4.246;2023-07-08T07:54:11;26.50;98.40
23156;DHT22;11746;50.876;4.246;2023-07-08T07:56:37;26.70;99.40
23156;DHT22;11746;50.876;4.246;2023-07-08T07:59:03;26.90;98.60
23156;DHT22;11746;50.876;4.246;2023-07-08T08:01:29;27.30;97.30
23156;DHT22;11746;50.876;4.246;2023-07-08T08:03:55;27.40;97.20
23156;DHT22;11746;50.876;4.246;2023-07-08T08:06:21;27.50;95.90
23156;DHT22;11746;50.876;4.246;2023-07-08T08:08:48;27.40;95.40
23156;DHT22;11746;50.876;4.246;2023-07-08T08:11:15;27.40;95.10
23156;DHT22;11746;50.876;4.246;2023-07-08T08:13:42;27.50;95.40
23156;DHT22;11746;50.876;4.246;2023-07-08T08:16:08;27.60;96.00
23156;DHT22;11746;50.876;4.246;2023-07-08T08:18:34;27.80;93.80
23156;DHT22;11746;50.876;4.246;2023-07-08T08:21:00;27.90;93.10
23156;DHT22;11746;50.876;4.246;2023-07-08T08:23:26;27.90;93.20
23156;DHT22;11746;50.876;4.246;2023-07-08T08:25:52;28.00;91.90
23156;DHT22;11746;50.876;4.246;2023-07-08T08:28:18;28.00;91.30
23156;DHT22;11746;50.876;4.246;2023-07-08T08:30:48;28.10;87.60
23156;DHT22;11746;50.876;4.246;2023-07-08T08:33:14;28.20;90.90
23156;DHT22;11746;50.876;4.246;2023-07-08T08:35:42;28.10;90.40
23156;DHT22;11746;50.876;4.246;2023-07-08T08:38:08;28.00;90.40
23156;DHT22;11746;50.876;4.246;2023-07-08T08:40:34;28.10;90.50
23156;DHT22;11746;50.876;4.246;2023-07-08T08:43:01;28.30;90.50
23156;DHT22;11746;50.876;4.246;2023-07-08T08:45:31;28.40;90.70
23156;DHT22;11746;50.876;4.246;2023-07-08T08:48:03;28.50;90.90
23156;DHT22;11746;50.876;4.246;2023-07-08T08:50:41;28.50;90.40
23156;DHT22;11746;50.876;4.246;2023-07-08T08:53:12;28.50;90.00
23156;DHT22;11746;50.876;4.246;2023-07-08T08:55:39;28.60;88.50
23156;DHT22;11746;50.876;4.246;2023-07-08T09:01:00;28.20;90.10
23156;DHT22;11746;50.876;4.246;2023-07-08T09:06:20;28.60;90.20
23156;DHT22;11746;50.876;4.246;2023-07-08T09:08:47;28.80;89.90
23156;DHT22;11746;50.876;4.246;2023-07-08T09:11:42;28.80;88.60
23156;DHT22;11746;50.876;4.246;2023-07-08T09:14:27;28.70;89.20
23156;DHT22;11746;50.876;4.246;2023-07-08T09:19:35;29.00;85.00
23156;DHT22;11746;50.876;4.246;2023-07-08T09:27:17;29.30;81.90
23156;DHT22;11746;50.876;4.246;2023-07-08T09:29:43;29.50;83.10
23156;DHT22;11746;50.876;4.246;2023-07-08T09:32:19;29.60;82.60
23156;DHT22;11746;50.876;4.246;2023-07-08T09:35:01;29.60;82.50
23156;DHT22;11746;50.876;4.246;2023-07-08T09:37:35;29.50;81.70
23156;DHT22;11746;50.876;4.246;2023-07-08T09:40:18;29.40;81.80
23156;DHT22;11746;50.876;4.246;2023-07-08T09:42:50;29.70;81.80
23156;DHT22;11746;50.876;4.246;2023-07-08T09:45:20;30.10;81.10
23156;DHT22;11746;50.876;4.246;2023-07-08T09:47:47;30.30;80.50
23156;DHT22;11746;50.876;4.246;2023-07-08T09:50:27;30.40;80.50
23156;DHT22;11746;50.876;4.246;2023-07-08T09:52:56;30.50;78.30
23156;DHT22;11746;50.876;4.246;2023-07-08T09:55:23;30.50;78.10
23156;DHT22;11746;50.876;4.246;2023-07-08T09:57:52;30.50;79.40
23156;DHT22;11746;50.876;4.246;2023-07-08T10:00:41;30.70;79.10
23156;DHT22;11746;50.876;4.246;2023-07-08T10:03:28;30.80;76.70
23156;DHT22;11746;50.876;4.246;2023-07-08T10:05:57;31.10;78.50
23156;DHT22;11746;50.876;4.246;2023-07-08T10:08:41;31.10;76.80
23156;DHT22;11746;50.876;4.246;2023-07-08T10:13:52;31.20;76.20
23156;DHT22;11746;50.876;4.246;2023-07-08T10:16:25;31.20;77.00
23156;DHT22;11746;50.876;4.246;2023-07-08T10:18:52;31.40;77.50
23156;DHT22;11746;50.876;4.246;2023-07-08T10:26:33;31.30;74.70
23156;DHT22;11746;50.876;4.246;2023-07-08T10:32:16;31.20;75.90
23156;DHT22;11746;50.876;4.246;2023-07-08T10:35:11;31.40;77.30
23156;DHT22;11746;50.876;4.246;2023-07-08T10:43:44;31.40;75.10
23156;DHT22;11746;50.876;4.246;2023-07-08T10:49:20;32.10;73.00
23156;DHT22;11746;50.876;4.246;2023-07-08T11:02:39;31.70;70.70
23156;DHT22;11746;50.876;4.246;2023-07-08T11:08:15;32.40;69.60
23156;DHT22;11746;50.876;4.246;2023-07-08T11:11:06;32.70;71.30
23156;DHT22;11746;50.876;4.246;2023-07-08T11:13:39;33.10;70.70
23156;DHT22;11746;50.876;4.246;2023-07-08T11:19:04;33.60;69.20
23156;DHT22;11746;50.876;4.246;2023-07-08T11:21:54;33.60;67.50
23156;DHT22;11746;50.876;4.246;2023-07-08T11:32:37;33.60;64.20
23156;DHT22;11746;50.876;4.246;2023-07-08T11:35:13;33.70;65.60
23156;DHT22;11746;50.876;4.246;2023-07-08T11:37:41;34.10;67.70
23156;DHT22;11746;50.876;4.246;2023-07-08T11:40:19;34.30;67.70
23156;DHT22;11746;50.876;4.246;2023-07-08T11:42:51;34.30;67.20
23156;DHT22;11746;50.876;4.246;2023-07-08T11:47:48;34.20;64.10
23156;DHT22;11746;50.876;4.246;2023-07-08T11:50:31;34.40;65.30
23156;DHT22;11746;50.876;4.246;2023-07-08T11:53:03;34.50;65.70
23156;DHT22;11746;50.876;4.246;2023-07-08T11:55:42;34.30;64.80
23156;DHT22;11746;50.876;4.246;2023-07-08T11:58:20;34.30;64.60
23156;DHT22;11746;50.876;4.246;2023-07-08T12:01:39;34.50;64.60
23156;DHT22;11746;50.876;4.246;2023-07-08T12:03:47;34.40;65.60
23156;DHT22;11746;50.876;4.246;2023-07-08T12:08:55;34.60;66.00
23156;DHT22;11746;50.876;4.246;2023-07-08T12:11:33;35.10;67.10
23156;DHT22;11746;50.876;4.246;2023-07-08T12:14:01;35.60;66.70
23156;DHT22;11746;50.876;4.246;2023-07-08T12:16:29;35.40;66.20
23156;DHT22;11746;50.876;4.246;2023-07-08T12:18:59;35.10;66.50
23156;DHT22;11746;50.876;4.246;2023-07-08T12:21:27;35.20;67.40
23156;DHT22;11746;50.876;4.246;2023-07-08T12:23:54;35.10;67.50
23156;DHT22;11746;50.876;4.246;2023-07-08T12:26:21;35.10;68.60
23156;DHT22;11746;50.876;4.246;2023-07-08T12:28:47;35.20;69.30
23156;DHT22;11746;50.876;4.246;2023-07-08T12:31:18;35.50;67.70
23156;DHT22;11746;50.876;4.246;2023-07-08T12:33:45;35.90;69.30
23156;DHT22;11746;50.876;4.246;2023-07-08T12:36:22;36.20;68.40
23156;DHT22;11746;50.876;4.246;2023-07-08T12:38:54;36.10;66.20
23156;DHT22;11746;50.876;4.246;2023-07-08T12:41:23;36.20;66.50
23156;DHT22;11746;50.876;4.246;2023-07-08T12:43:50;36.00;65.50
23156;DHT22;11746;50.876;4.246;2023-07-08T12:46:18;35.90;67.80
23156;DHT22;11746;50.876;4.246;2023-07-08T12:48:44;35.90;65.90
23156;DHT22;11746;50.876;4.246;2023-07-08T12:51:16;36.10;65.70
23156;DHT22;11746;50.876;4.246;2023-07-08T12:53:43;36.40;67.30
23156;DHT22;11746;50.876;4.246;2023-07-08T12:56:09;36.40;67.10
23156;DHT22;11746;50.876;4.246;2023-07-08T12:58:44;36.70;66.60
23156;DHT22;11746;50.876;4.246;2023-07-08T13:01:19;36.90;67.60
23156;DHT22;11746;50.876;4.246;2023-07-08T13:03:48;36.90;66.90
23156;DHT22;11746;50.876;4.246;2023-07-08T13:06:20;36.50;65.60
23156;DHT22;11746;50.876;4.246;2023-07-08T13:08:47;35.80;67.60
23156;DHT22;11746;50.876;4.246;2023-07-08T13:11:15;35.10;68.60
23156;DHT22;11746;50.876;4.246;2023-07-08T13:13:49;35.50;69.00
23156;DHT22;11746;50.876;4.246;2023-07-08T13:16:16;35.70;69.30
23156;DHT22;11746;50.876;4.246;2023-07-08T13:18:43;35.60;70.00
23156;DHT22;11746;50.876;4.246;2023-07-08T13:21:12;35.00;68.20
23156;DHT22;11746;50.876;4.246;2023-07-08T13:23:39;34.20;68.60
23156;DHT22;11746;50.876;4.246;2023-07-08T13:26:34;33.60;69.20
23156;DHT22;11746;50.876;4.246;2023-07-08T13:29:06;32.80;69.00
23156;DHT22;11746;50.876;4.246;2023-07-08T13:31:37;32.40;71.00
23156;DHT22;11746;50.876;4.246;2023-07-08T13:34:09;31.90;73.30
23156;DHT22;11746;50.876;4.246;2023-07-08T13:36:39;31.30;75.20
23156;DHT22;11746;50.876;4.246;2023-07-08T13:39:08;31.10;77.30
23156;DHT22;11746;50.876;4.246;2023-07-08T13:41:34;31.20;78.80
23156;DHT22;11746;50.876;4.246;2023-07-08T13:44:05;31.40;78.50
23156;DHT22;11746;50.876;4.246;2023-07-08T13:46:37;31.40;78.90
23156;DHT22;11746;50.876;4.246;2023-07-08T13:49:29;31.40;79.50
23156;DHT22;11746;50.876;4.246;2023-07-08T13:52:16;31.70;78.50
23156;DHT22;11746;50.876;4.246;2023-07-08T13:54:58;32.00;78.10
23156;DHT22;11746;50.876;4.246;2023-07-08T13:57:33;32.30;76.90
23156;DHT22;11746;50.876;4.246;2023-07-08T13:59:59;32.50;75.30
23156;DHT22;11746;50.876;4.246;2023-07-08T14:02:27;32.60;75.40
23156;DHT22;11746;50.876;4.246;2023-07-08T14:04:54;33.00;74.30
23156;DHT22;11746;50.876;4.246;2023-07-08T14:07:26;33.40;71.90
23156;DHT22;11746;50.876;4.246;2023-07-08T14:09:52;33.70;70.20
23156;DHT22;11746;50.876;4.246;2023-07-08T14:12:20;34.00;70.90
23156;DHT22;11746;50.876;4.246;2023-07-08T14:14:46;34.00;73.70
23156;DHT22;11746;50.876;4.246;2023-07-08T14:17:18;34.00;73.00
23156;DHT22;11746;50.876;4.246;2023-07-08T14:19:44;33.90;70.60
23156;DHT22;11746;50.876;4.246;2023-07-08T14:24:40;33.60;71.80
23156;DHT22;11746;50.876;4.246;2023-07-08T14:27:09;33.30;71.10
23156;DHT22;11746;50.876;4.246;2023-07-08T14:29:38;33.20;71.10
23156;DHT22;11746;50.876;4.246;2023-07-08T14:32:07;33.30;72.00
23156;DHT22;11746;50.876;4.246;2023-07-08T14:34:36;33.50;72.30
23156;DHT22;11746;50.876;4.246;2023-07-08T14:37:02;33.70;72.00
23156;DHT22;11746;50.876;4.246;2023-07-08T14:39:31;34.20;71.60
23156;DHT22;11746;50.876;4.246;2023-07-08T14:41:59;34.40;71.90
23156;DHT22;11746;50.876;4.246;2023-07-08T14:44:31;34.90;71.30
23156;DHT22;11746;50.876;4.246;2023-07-08T14:46:59;35.30;71.70
23156;DHT22;11746;50.876;4.246;2023-07-08T14:49:26;35.40;71.70
23156;DHT22;11746;50.876;4.246;2023-07-08T14:51:52;35.90;70.10
23156;DHT22;11746;50.876;4.246;2023-07-08T14:54:19;36.10;67.10
23156;DHT22;11746;50.876;4.246;2023-07-08T14:56:46;36.30;66.70
23156;DHT22;11746;50.876;4.246;2023-07-08T14:59:18;36.60;67.60
23156;DHT22;11746;50.876;4.246;2023-07-08T15:01:45;36.20;66.40
23156;DHT22;11746;50.876;4.246;2023-07-08T15:04:13;36.30;68.10
23156;DHT22;11746;50.876;4.246;2023-07-08T15:06:39;36.00;68.10
23156;DHT22;11746;50.876;4.246;2023-07-08T15:09:05;36.20;69.10
23156;DHT22;11746;50.876;4.246;2023-07-08T15:11:31;36.40;68.90
23156;DHT22;11746;50.876;4.246;2023-07-08T15:13:58;36.70;68.50
23156;DHT22;11746;50.876;4.246;2023-07-08T15:16:25;36.60;67.80
23156;DHT22;11746;50.876;4.246;2023-07-08T15:18:51;36.50;69.00
23156;DHT22;11746;50.876;4.246;2023-07-08T15:21:16;36.80;67.80
23156;DHT22;11746;50.876;4.246;2023-07-08T15:23:43;36.80;68.10
23156;DHT22;11746;50.876;4.246;2023-07-08T15:26:12;36.70;68.90
23156;DHT22;11746;50.876;4.246;2023-07-08T15:28:49;37.00;68.50
23156;DHT22;11746;50.876;4.246;2023-07-08T15:31:20;37.20;69.80
23156;DHT22;11746;50.876;4.246;2023-07-08T15:33:46;37.10;70.00
23156;DHT22;11746;50.876;4.246;2023-07-08T15:36:12;37.40;70.40
23156;DHT22;11746;50.876;4.246;2023-07-08T15:38:42;37.40;70.50
23156;DHT22;11746;50.876;4.246;2023-07-08T15:41:21;37.30;71.00
23156;DHT22;11746;50.876;4.246;2023-07-08T15:43:48;37.30;69.80
23156;DHT22;11746;50.876;4.246;2023-07-08T15:46:15;36.70;72.20
23156;DHT22;11746;50.876;4.246;2023-07-08T15:48:42;36.70;72.10
23156;DHT22;11746;50.876;4.246;2023-07-08T15:51:10;36.20;74.50
23156;DHT22;11746;50.876;4.246;2023-07-08T15:53:38;35.80;75.40
23156;DHT22;11746;50.876;4.246;2023-07-08T15:56:04;35.50;75.40
23156;DHT22;11746;50.876;4.246;2023-07-08T15:58:32;36.00;76.50
23156;DHT22;11746;50.876;4.246;2023-07-08T16:01:00;36.50;74.80
23156;DHT22;11746;50.876;4.246;2023-07-08T16:03:32;36.70;74.80
23156;DHT22;11746;50.876;4.246;2023-07-08T16:05:59;36.40;74.60
23156;DHT22;11746;50.876;4.246;2023-07-08T16:08:26;36.70;72.40
23156;DHT22;11746;50.876;4.246;2023-07-08T16:11:04;36.20;72.30
23156;DHT22;11746;50.876;4.246;2023-07-08T16:13:33;35.80;72.60
23156;DHT22;11746;50.876;4.246;2023-07-08T16:16:00;35.50;74.10
23156;DHT22;11746;50.876;4.246;2023-07-08T16:18:26;35.80;73.90
23156;DHT22;11746;50.876;4.246;2023-07-08T16:20:52;36.00;73.30
23156;DHT22;11746;50.876;4.246;2023-07-08T16:23:18;35.60;73.30
23156;DHT22;11746;50.876;4.246;2023-07-08T16:25:47;35.30;74.50
23156;DHT22;11746;50.876;4.246;2023-07-08T16:28:36;35.10;74.40
23156;DHT22;11746;50.876;4.246;2023-07-08T16:31:20;35.20;75.20
23156;DHT22;11746;50.876;4.246;2023-07-08T16:33:47;36.00;73.50
23156;DHT22;11746;50.876;4.246;2023-07-08T16:36:20;35.80;73.60
23156;DHT22;11746;50.876;4.246;2023-07-08T16:38:47;35.50;74.10
23156;DHT22;11746;50.876;4.246;2023-07-08T16:41:14;35.70;73.50
23156;DHT22;11746;50.876;4.246;2023-07-08T16:43:42;35.30;72.30
23156;DHT22;11746;50.876;4.246;2023-07-08T16:46:09;35.00;73.20
23156;DHT22;11746;50.876;4.246;2023-07-08T16:48:36;35.30;74.00
23156;DHT22;11746;50.876;4.246;2023-07-08T16:51:13;35.50;72.70